createdAt,value
2019-04-04T00:00:48.666Z,101187.59
2019-04-04T00:03:16.631Z,101178.08
2019-04-04T00:05:44.495Z,101184.16
2019-04-04T00:08:12.253Z,101175.91
2019-04-04T00:10:40.015Z,101169.80
2019-04-04T00:13:10.865Z,101174.56
2019-04-04T00:15:45.519Z,101167.17
2019-04-04T00:18:20.550Z,101164.98
2019-04-04T00:20:54.586Z,101164.12
2019-04-04T00:23:29.469Z,101165.50
2019-04-04T00:25:59.960Z,101164.59
2019-04-04T00:28:36.762Z,101164.15
2019-04-04T00:31:06.782Z,101165.84
2019-04-04T00:33:34.951Z,101164.08
2019-04-04T00:36:03.377Z,101165.04
2019-04-04T00:38:31.804Z,101158.45
2019-04-04T00:40:59.984Z,101167.08
2019-04-04T00:43:36.756Z,101168.38
2019-04-04T00:46:04.823Z,101164.08
2019-04-04T00:48:39.762Z,101163.20
2019-04-04T00:51:28.104Z,101160.57
2019-04-04T00:53:56.689Z,101162.19
2019-04-04T00:56:24.754Z,101156.79
2019-04-04T00:58:54.263Z,101156.73
2019-04-04T01:01:26.995Z,101159.34
2019-04-04T01:03:56.956Z,101164.62
2019-04-04T01:06:26.873Z,101162.03
2019-04-04T01:08:54.739Z,101157.89
2019-04-04T01:11:25.988Z,101158.70
2019-04-04T01:14:02.300Z,101156.44
2019-04-04T01:16:34.169Z,101158.11
2019-04-04T01:19:02.380Z,101153.44
2019-04-04T01:21:30.655Z,101153.00
2019-04-04T01:23:59.013Z,101149.99
2019-04-04T01:26:28.022Z,101150.43
2019-04-04T01:28:56.097Z,101154.67
2019-04-04T01:31:24.268Z,101147.28
2019-04-04T01:34:01.459Z,101142.50
2019-04-04T01:36:35.874Z,101145.77
2019-04-04T01:39:05.526Z,101143.64
2019-04-04T01:41:53.930Z,101148.05
2019-04-04T01:44:28.353Z,101138.39
2019-04-04T01:46:56.320Z,101141.92
2019-04-04T01:49:30.226Z,101137.63
2019-04-04T01:52:00.943Z,101138.84
2019-04-04T01:54:32.807Z,101135.42
2019-04-04T01:57:01.812Z,101138.94
2019-04-04T01:59:31.311Z,101131.16
2019-04-04T02:01:59.995Z,101138.94
2019-04-04T02:04:36.550Z,101137.70
2019-04-04T02:07:06.175Z,101136.25
2019-04-04T02:09:34.670Z,101140.72
2019-04-04T02:12:02.528Z,101138.09
2019-04-04T02:14:30.286Z,101141.08
2019-04-04T02:16:58.045Z,101137.22
2019-04-04T02:19:26.119Z,101138.73
2019-04-04T02:21:55.429Z,101143.88
2019-04-04T02:24:23.591Z,101146.09
2019-04-04T02:26:51.257Z,101144.30
2019-04-04T02:29:19.018Z,101138.57
2019-04-04T02:31:54.720Z,101144.64
2019-04-04T02:34:23.352Z,101146.72
2019-04-04T02:36:51.219Z,101148.47
2019-04-04T02:39:18.979Z,101148.40
2019-04-04T02:41:48.362Z,101149.27
2019-04-04T02:44:16.038Z,101146.60
2019-04-04T02:46:45.501Z,101155.14
2019-04-04T02:49:13.723Z,101158.81
2019-04-04T02:51:41.638Z,101163.10
2019-04-04T02:54:10.186Z,101156.12
2019-04-04T02:56:38.142Z,101158.63
2019-04-04T02:59:05.900Z,101160.94
2019-04-04T03:01:37.180Z,101163.29
2019-04-04T03:04:04.830Z,101165.67
2019-04-04T03:06:32.882Z,101164.84
2019-04-04T03:09:00.845Z,101165.87
2019-04-04T03:11:28.712Z,101166.09
2019-04-04T03:13:56.689Z,101174.66
2019-04-04T03:16:24.451Z,101176.86
2019-04-04T03:18:52.310Z,101174.86
2019-04-04T03:21:23.482Z,101176.20
2019-04-04T03:23:50.501Z,101185.17
2019-04-04T03:26:20.040Z,101177.45
2019-04-04T03:28:48.286Z,101180.16
2019-04-04T03:31:16.046Z,101176.31
2019-04-04T03:33:44.039Z,101179.42
2019-04-04T03:36:12.188Z,101183.81
2019-04-04T03:38:40.981Z,101181.69
2019-04-04T03:41:08.941Z,101180.06
2019-04-04T03:43:36.933Z,101188.23
2019-04-04T03:46:04.904Z,101187.13
2019-04-04T03:48:32.852Z,101192.80
2019-04-04T03:51:04.687Z,101194.14
2019-04-04T03:53:31.136Z,101199.98
2019-04-04T03:56:01.191Z,101200.45
2019-04-04T03:58:29.015Z,101196.34
2019-04-04T04:00:57.507Z,101199.16
2019-04-04T04:03:25.568Z,101195.08
2019-04-04T04:05:53.537Z,101195.08
2019-04-04T04:08:22.259Z,101190.41
2019-04-04T04:10:50.093Z,101194.67
2019-04-04T04:13:18.179Z,101195.02
2019-04-04T04:15:46.174Z,101193.23
2019-04-04T04:18:14.115Z,101197.32
2019-04-04T04:20:42.004Z,101192.42
2019-04-04T04:23:10.132Z,101191.73
2019-04-04T04:25:38.310Z,101192.14
2019-04-04T04:28:06.275Z,101193.03
2019-04-04T04:30:39.288Z,101193.13
2019-04-04T04:33:05.083Z,101189.45
2019-04-04T04:35:33.170Z,101200.11
2019-04-04T04:38:01.013Z,101193.19
2019-04-04T04:40:28.985Z,101196.41
2019-04-04T04:42:59.820Z,101195.98
2019-04-04T04:45:26.563Z,101201.03
2019-04-04T04:47:57.045Z,101198.75
2019-04-04T04:50:24.548Z,101205.66
2019-04-04T04:52:52.824Z,101201.70
2019-04-04T04:55:21.094Z,101205.33
2019-04-04T04:57:48.987Z,101202.75
2019-04-04T05:00:18.060Z,101201.62
2019-04-04T05:02:46.333Z,101203.53
2019-04-04T05:05:14.709Z,101207.61
2019-04-04T05:07:42.987Z,101210.25
2019-04-04T05:10:10.955Z,101206.87
2019-04-04T05:12:38.940Z,101205.19
2019-04-04T05:15:06.995Z,101201.66
2019-04-04T05:17:34.963Z,101209.52
2019-04-04T05:20:05.180Z,101208.28
2019-04-04T05:22:32.949Z,101206.97
2019-04-04T05:25:07.929Z,101213.02
2019-04-04T05:27:30.552Z,101214.82
2019-04-04T05:29:58.610Z,101212.74
2019-04-04T05:32:26.565Z,101214.91
2019-04-04T05:34:54.545Z,101219.70
2019-04-04T05:37:22.704Z,101217.13
2019-04-04T05:39:51.534Z,101219.33
2019-04-04T05:42:20.277Z,101214.99
2019-04-04T05:44:48.258Z,101215.28
2019-04-04T05:47:16.232Z,101214.91
2019-04-04T05:49:44.209Z,101218.19
2019-04-04T05:52:12.160Z,101222.16
2019-04-04T05:54:40.702Z,101210.24
2019-04-04T05:57:08.597Z,101216.03
2019-04-04T05:59:36.571Z,101210.37
2019-04-04T06:02:06.785Z,101221.80
2019-04-04T06:04:34.558Z,101222.22
2019-04-04T06:07:04.453Z,101225.22
2019-04-04T06:09:31.931Z,101222.25
2019-04-04T06:12:00.400Z,101228.41
2019-04-04T06:14:30.091Z,101231.03
2019-04-04T06:16:58.488Z,101244.19
2019-04-04T06:19:26.353Z,101241.51
2019-04-04T06:21:54.322Z,101240.26
2019-04-04T06:24:22.295Z,101241.56
2019-04-04T06:26:50.261Z,101234.98
2019-04-04T06:29:18.434Z,101240.26
2019-04-04T06:31:46.501Z,101235.88
2019-04-04T06:34:14.374Z,101236.31
2019-04-04T06:36:42.546Z,101233.67
2019-04-04T06:39:10.815Z,101232.78
2019-04-04T06:41:38.581Z,101234.09
2019-04-04T06:44:06.763Z,101236.73
2019-04-04T06:46:34.724Z,101230.07
2019-04-04T06:49:04.397Z,101232.70
2019-04-04T06:51:32.300Z,101235.31
2019-04-04T06:54:01.029Z,101230.94
2019-04-04T06:56:31.852Z,101231.31
2019-04-04T06:58:58.287Z,101226.37
2019-04-04T07:01:26.630Z,101234.40
2019-04-04T07:03:54.190Z,101230.78
2019-04-04T07:06:22.158Z,101229.80
2019-04-04T07:08:50.123Z,101235.78
2019-04-04T07:11:21.409Z,101236.59
2019-04-04T07:13:48.115Z,101240.27
2019-04-04T07:16:15.871Z,101235.94
2019-04-04T07:18:43.851Z,101237.36
2019-04-04T07:21:11.812Z,101235.22
2019-04-04T07:23:41.862Z,101234.77
2019-04-04T07:26:14.580Z,101233.75
2019-04-04T07:28:39.404Z,101235.42
2019-04-04T07:31:07.372Z,101236.80
2019-04-04T07:33:37.694Z,101238.00
2019-04-04T07:36:05.764Z,101237.13
2019-04-04T07:38:35.104Z,101226.78
2019-04-04T07:41:02.827Z,101228.93
2019-04-04T07:43:30.934Z,101232.64
2019-04-04T07:46:01.342Z,101227.55
2019-04-04T07:48:28.622Z,101228.64
2019-04-04T07:50:58.490Z,101220.34
2019-04-04T07:53:28.351Z,101220.34
2019-04-04T07:55:56.169Z,101228.58
2019-04-04T07:58:24.156Z,101228.58
2019-04-04T08:00:52.720Z,101206.30
2019-04-04T08:03:21.411Z,101208.33
2019-04-04T08:05:49.368Z,101208.33
2019-04-04T08:08:17.342Z,101206.29
2019-04-04T08:10:45.335Z,101206.29
2019-04-04T08:13:13.478Z,101211.68
2019-04-04T08:15:41.348Z,101205.34
2019-04-04T08:18:09.417Z,101203.55
2019-04-04T08:20:37.304Z,101207.64
2019-04-04T08:23:05.458Z,101205.24
2019-04-04T08:25:33.631Z,101201.09
2019-04-04T08:28:01.395Z,101199.89
2019-04-04T08:30:29.461Z,101199.02
2019-04-04T08:32:57.445Z,101192.79
2019-04-04T08:35:25.505Z,101182.13
2019-04-04T08:37:53.429Z,101182.37
2019-04-04T08:40:21.441Z,101182.14
2019-04-04T08:42:49.510Z,101186.88
2019-04-04T08:45:17.587Z,101187.20
2019-04-04T08:47:45.551Z,101183.23
2019-04-04T08:50:13.621Z,101171.69
2019-04-04T08:52:41.997Z,101170.68
2019-04-04T08:55:09.866Z,101168.03
2019-04-04T08:57:37.932Z,101164.53
2019-04-04T09:00:07.130Z,101164.23
2019-04-04T09:02:35.409Z,101159.75
2019-04-04T09:05:11.943Z,101162.31
2019-04-04T09:07:34.418Z,101164.84
2019-04-04T09:10:04.913Z,101155.20
2019-04-04T09:12:32.509Z,101141.38
2019-04-04T09:15:00.573Z,101158.57
2019-04-04T09:17:28.545Z,101161.88
2019-04-04T09:19:56.512Z,101159.70
2019-04-04T09:22:24.480Z,101161.13
2019-04-04T09:24:52.448Z,101163.22
2019-04-04T09:27:20.532Z,101174.16
2019-04-04T09:29:48.690Z,101174.16
2019-04-04T09:32:16.658Z,101160.67
2019-04-04T09:34:44.933Z,101159.50
2019-04-04T09:37:12.902Z,101156.02
2019-04-04T09:39:41.078Z,101160.14
2019-04-04T09:42:10.082Z,101156.70
2019-04-04T09:44:38.036Z,101155.42
2019-04-04T09:47:06.046Z,101151.92
2019-04-04T09:49:34.045Z,101144.86
2019-04-04T09:52:02.170Z,101144.80
2019-04-04T09:54:30.429Z,101142.85
2019-04-04T09:56:58.394Z,101134.30
2019-04-04T09:59:26.363Z,101136.95
2019-04-04T10:01:54.739Z,101143.48
2019-04-04T10:04:22.909Z,101134.34
2019-04-04T10:06:50.880Z,101132.33
2019-04-04T10:09:18.956Z,101127.91
2019-04-04T10:11:46.920Z,101127.91
2019-04-04T10:14:15.195Z,101137.59
2019-04-04T10:16:43.166Z,101127.22
2019-04-04T10:19:11.132Z,101134.32
2019-04-04T10:21:38.999Z,101134.32
2019-04-04T10:24:07.073Z,101138.31
2019-04-04T10:26:34.936Z,101142.55
2019-04-04T10:29:02.908Z,101133.36
2019-04-04T10:31:30.972Z,101133.05
2019-04-04T10:33:59.762Z,101130.88
2019-04-04T10:36:27.829Z,101122.05
2019-04-04T10:38:56.206Z,101121.17
2019-04-04T10:41:25.012Z,101118.78
2019-04-04T10:43:53.174Z,101111.67
2019-04-04T10:46:21.244Z,101105.39
2019-04-04T10:48:49.207Z,101107.29
2019-04-04T10:51:17.281Z,101103.12
2019-04-04T10:53:45.874Z,101101.80
2019-04-04T10:56:13.934Z,101107.27
2019-04-04T10:58:42.008Z,101097.09
2019-04-04T11:01:10.959Z,101097.28
2019-04-04T11:03:39.272Z,101090.74
2019-04-04T11:06:07.238Z,101087.53
2019-04-04T11:08:35.206Z,101076.34
2019-04-04T11:11:03.187Z,101081.91
2019-04-04T11:13:34.206Z,101088.20
2019-04-04T11:16:03.437Z,101083.38
2019-04-04T11:18:31.082Z,101069.84
2019-04-04T11:21:00.287Z,101072.98
2019-04-04T11:23:28.343Z,101066.41
2019-04-04T11:25:56.519Z,101061.52
2019-04-04T11:28:24.592Z,101064.77
2019-04-04T11:30:52.660Z,101060.33
2019-04-04T11:33:20.828Z,101064.01
2019-04-04T11:35:48.905Z,101051.14
2019-04-04T11:38:16.870Z,101055.05
2019-04-04T11:40:44.841Z,101056.98
2019-04-04T11:43:12.909Z,101053.73
2019-04-04T11:45:40.879Z,101047.89
2019-04-04T11:48:08.843Z,101043.18
2019-04-04T11:50:39.615Z,101045.64
2019-04-04T11:53:06.834Z,101039.13
2019-04-04T11:55:35.109Z,101044.25
2019-04-04T11:58:02.873Z,101048.28
2019-04-04T12:00:32.894Z,101045.03
2019-04-04T12:03:01.482Z,101045.86
2019-04-04T12:05:29.131Z,101041.52
2019-04-04T12:07:57.214Z,101041.78
2019-04-04T12:10:25.172Z,101044.16
2019-04-04T12:12:52.727Z,101037.06
2019-04-04T12:15:21.418Z,101031.16
2019-04-04T12:17:50.307Z,101025.45
2019-04-04T12:20:18.272Z,101023.86
2019-04-04T12:22:46.356Z,101025.50
2019-04-04T12:25:14.240Z,101022.51
2019-04-04T12:27:42.289Z,101019.47
2019-04-04T12:30:11.173Z,101022.33
2019-04-04T12:32:39.241Z,101021.61
2019-04-04T12:35:08.435Z,101026.33
2019-04-04T12:37:36.409Z,101022.51
2019-04-04T12:40:05.501Z,101016.05
2019-04-04T12:42:33.263Z,101023.80
2019-04-04T12:45:01.235Z,101024.63
2019-04-04T12:47:30.435Z,101021.16
2019-04-04T12:49:58.504Z,101011.50
2019-04-04T12:52:26.783Z,101012.81
2019-04-04T12:54:54.948Z,101016.67
2019-04-04T12:57:22.522Z,101009.52
2019-04-04T12:59:50.591Z,101019.55
2019-04-04T13:02:19.262Z,101007.04
2019-04-04T13:04:47.362Z,101004.02
2019-04-04T13:07:15.709Z,101004.11
2019-04-04T13:09:43.883Z,101002.75
2019-04-04T13:12:11.952Z,101007.56
2019-04-04T13:14:42.483Z,100996.48
2019-04-04T13:17:10.553Z,100995.34
2019-04-04T13:19:38.523Z,100993.86
2019-04-04T13:22:06.510Z,100999.47
2019-04-04T13:24:34.462Z,101001.09
2019-04-04T13:27:04.371Z,100997.38
2019-04-04T13:29:32.344Z,101002.72
2019-04-04T13:32:00.310Z,101004.08
2019-04-04T13:34:28.283Z,100998.97
2019-04-04T13:36:56.244Z,100996.95
2019-04-04T13:39:24.317Z,100996.52
2019-04-04T13:41:52.080Z,100995.64
2019-04-04T13:44:21.401Z,100991.91
2019-04-04T13:46:49.655Z,100995.09
2019-04-04T13:49:18.699Z,100993.83
2019-04-04T13:51:47.036Z,100992.96
2019-04-04T13:54:15.309Z,100990.73
2019-04-04T13:56:43.279Z,100995.70
2019-04-04T13:59:11.241Z,100990.41
2019-04-04T14:01:42.724Z,100989.84
2019-04-04T14:04:09.538Z,100981.28
2019-04-04T14:06:37.496Z,100993.56
2019-04-04T14:09:07.685Z,100982.11
2019-04-04T14:11:35.289Z,100978.77
2019-04-04T14:14:03.468Z,100976.14
2019-04-04T14:16:31.656Z,100974.17
2019-04-04T14:18:59.796Z,100981.94
2019-04-04T14:21:27.763Z,100984.00
2019-04-04T14:23:56.982Z,100988.32
2019-04-04T14:26:25.035Z,100985.59
2019-04-04T14:28:53.004Z,100982.84
2019-04-04T14:31:20.971Z,100989.28
2019-04-04T14:33:49.252Z,100987.84
2019-04-04T14:36:17.313Z,100990.24
2019-04-04T14:38:45.399Z,100983.17
2019-04-04T14:41:13.158Z,100981.52
2019-04-04T14:43:41.124Z,100982.33
2019-04-04T14:46:09.087Z,100980.76
2019-04-04T14:48:37.468Z,100986.64
2019-04-04T14:51:05.550Z,100980.97
2019-04-04T14:53:34.017Z,100981.70
2019-04-04T14:56:01.889Z,100986.05
2019-04-04T14:58:30.844Z,100982.73
2019-04-04T15:00:59.466Z,100980.88
2019-04-04T15:03:27.224Z,100974.39
2019-04-04T15:05:55.195Z,100980.56
2019-04-04T15:08:23.060Z,100971.69
2019-04-04T15:10:50.968Z,100980.33
2019-04-04T15:13:18.998Z,100978.66
2019-04-04T15:16:12.474Z,100976.66
2019-04-04T15:18:42.886Z,100973.22
2019-04-04T15:21:10.793Z,100981.80
2019-04-04T15:23:38.948Z,100983.28
2019-04-04T15:26:09.672Z,100984.20
2019-04-04T15:28:36.512Z,100977.68
2019-04-04T15:31:04.569Z,100980.77
2019-04-04T15:33:33.022Z,100977.96
2019-04-04T15:36:01.124Z,100984.23
2019-04-04T15:38:29.196Z,100980.86
2019-04-04T15:40:57.162Z,100983.84
2019-04-04T15:43:25.133Z,100983.62
2019-04-04T15:45:53.201Z,100982.48
2019-04-04T15:48:21.273Z,100987.77
2019-04-04T15:50:49.352Z,100981.28
2019-04-04T15:53:17.724Z,100979.39
2019-04-04T15:55:45.922Z,100981.19
2019-04-04T15:58:14.439Z,100985.44
2019-04-04T16:00:42.853Z,100985.71
2019-04-04T16:03:11.055Z,100984.97
2019-04-04T16:05:38.990Z,100989.40
2019-04-04T16:08:06.962Z,100987.42
2019-04-04T16:10:35.237Z,100986.41
2019-04-04T16:13:03.218Z,100986.05
2019-04-04T16:15:32.298Z,100991.27
2019-04-04T16:18:01.427Z,100993.86
2019-04-04T16:20:29.612Z,100993.61
2019-04-04T16:22:59.176Z,100995.81
2019-04-04T16:25:27.875Z,100996.60
2019-04-04T16:27:55.829Z,101002.01
2019-04-04T16:30:24.127Z,100998.97
2019-04-04T16:32:52.078Z,100999.53
2019-04-04T16:35:21.993Z,101000.29
2019-04-04T16:37:50.061Z,100996.80
2019-04-04T16:40:17.929Z,100996.80
2019-04-04T16:42:46.357Z,101000.30
2019-04-04T16:45:14.584Z,101002.09
2019-04-04T16:47:42.854Z,100998.28
2019-04-04T16:50:10.839Z,101005.01
2019-04-04T16:52:39.408Z,101008.14
2019-04-04T16:55:07.593Z,101012.64
2019-04-04T16:57:35.550Z,101008.69
2019-04-04T17:00:05.877Z,101014.45
2019-04-04T17:02:33.938Z,101019.27
2019-04-04T17:05:02.112Z,101019.27
2019-04-04T17:07:30.286Z,101014.99
2019-04-04T17:09:59.174Z,101021.27
2019-04-04T17:12:27.458Z,101019.83
2019-04-04T17:14:56.161Z,101023.00
2019-04-04T17:17:24.121Z,101023.11
2019-04-04T17:19:52.185Z,101028.32
2019-04-04T17:22:20.143Z,101023.56
2019-04-04T17:24:48.313Z,101031.89
2019-04-04T17:27:16.841Z,101036.41
2019-04-04T17:29:46.530Z,101036.41
2019-04-04T17:32:15.625Z,101033.83
2019-04-04T17:34:44.253Z,101036.64
2019-04-04T17:37:12.833Z,101036.64
2019-04-04T17:39:40.937Z,101035.77
2019-04-04T17:42:09.562Z,101038.03
2019-04-04T17:44:37.390Z,101036.31
2019-04-04T17:47:05.464Z,101035.86
2019-04-04T17:49:33.994Z,101040.27
2019-04-04T17:52:02.211Z,101039.44
2019-04-04T17:54:30.704Z,101035.02
2019-04-04T17:56:58.356Z,101031.95
2019-04-04T17:59:26.325Z,101037.30
2019-04-04T18:01:55.107Z,101045.56
2019-04-04T18:04:22.986Z,101049.72
2019-04-04T18:06:51.052Z,101037.11
2019-04-04T18:09:30.929Z,101050.42
2019-04-04T18:11:48.728Z,101043.53
2019-04-04T18:14:16.801Z,101041.77
2019-04-04T18:16:44.665Z,101042.67
2019-04-04T18:19:12.632Z,101038.72
2019-04-04T18:21:40.601Z,101040.14
2019-04-04T18:24:08.579Z,101043.37
2019-04-04T18:26:36.740Z,101043.83
2019-04-04T18:29:04.713Z,101046.09
2019-04-04T18:31:32.675Z,101040.89
2019-04-04T18:34:00.912Z,101051.05
2019-04-04T18:36:29.017Z,101054.52
2019-04-04T18:38:57.311Z,101054.03
2019-04-04T18:41:25.374Z,101053.54
2019-04-04T18:43:53.338Z,101052.52
2019-04-04T18:46:21.309Z,101056.55
2019-04-04T18:48:49.276Z,101055.27
2019-04-04T18:51:20.420Z,101056.51
2019-04-04T18:53:49.441Z,101052.05
2019-04-04T18:56:17.375Z,101060.46
2019-04-04T18:58:45.325Z,101057.87
2019-04-04T19:01:13.830Z,101060.95
2019-04-04T19:03:41.901Z,101057.45
2019-04-04T19:06:09.887Z,101058.02
2019-04-04T19:08:38.036Z,101053.54
2019-04-04T19:11:05.910Z,101057.00
2019-04-04T19:13:43.743Z,101054.37
2019-04-04T19:16:03.788Z,101056.14
2019-04-04T19:18:31.758Z,101054.86
2019-04-04T19:20:59.732Z,101052.67
2019-04-04T19:23:27.874Z,101054.52
2019-04-04T19:25:55.665Z,101051.91
2019-04-04T19:28:23.635Z,101058.09
2019-04-04T19:30:51.499Z,101080.50
2019-04-04T19:33:19.461Z,101074.77
2019-04-04T19:35:47.636Z,101080.13
2019-04-04T19:38:15.714Z,101087.63
2019-04-04T19:40:43.480Z,101082.80
2019-04-04T19:43:17.946Z,101083.67
2019-04-04T19:45:42.312Z,101087.17
2019-04-04T19:48:10.242Z,101088.05
2019-04-04T19:50:39.318Z,101092.41
2019-04-04T19:53:07.507Z,101093.28
2019-04-04T19:55:35.374Z,101095.06
2019-04-04T19:58:03.453Z,101090.66
2019-04-04T20:00:32.161Z,101086.75
2019-04-04T20:03:01.750Z,101087.64
2019-04-04T20:05:29.812Z,101085.02
2019-04-04T20:07:58.597Z,101099.05
2019-04-04T20:10:26.569Z,101093.36
2019-04-04T20:12:54.533Z,101101.68
2019-04-04T20:15:23.223Z,101091.16
2019-04-04T20:17:51.184Z,101098.16
2019-04-04T20:20:19.981Z,101088.95
2019-04-04T20:22:48.043Z,101095.94
2019-04-04T20:25:16.012Z,101102.06
2019-04-04T20:27:54.041Z,101096.33
2019-04-04T20:30:14.421Z,101103.31
2019-04-04T20:32:42.693Z,101096.75
2019-04-04T20:35:10.871Z,101098.92
2019-04-04T20:37:38.828Z,101099.34
2019-04-04T20:40:06.901Z,101097.14
2019-04-04T20:42:34.771Z,101094.92
2019-04-04T20:45:04.164Z,101098.83
2019-04-04T20:47:33.815Z,101094.03
2019-04-04T20:50:01.768Z,101096.20
2019-04-04T20:52:30.013Z,101100.55
2019-04-04T20:54:58.907Z,101100.13
2019-04-04T20:57:26.571Z,101101.88
2019-04-04T20:59:54.538Z,101102.74
2019-04-04T21:02:23.017Z,101107.10
2019-04-04T21:04:51.091Z,101104.90
2019-04-04T21:07:19.170Z,101105.34
2019-04-04T21:09:47.122Z,101107.05
2019-04-04T21:12:15.114Z,101105.34
2019-04-04T21:14:43.064Z,101101.81
2019-04-04T21:17:11.758Z,101093.46
2019-04-04T21:19:39.716Z,101109.61
2019-04-04T21:22:07.582Z,101105.20
2019-04-04T21:24:37.190Z,101104.34
2019-04-04T21:27:05.158Z,101104.81
2019-04-04T21:29:33.124Z,101106.97
2019-04-04T21:32:01.100Z,101095.58
2019-04-04T21:34:29.263Z,101102.53
2019-04-04T21:36:57.441Z,101102.52
2019-04-04T21:39:25.717Z,101105.20
2019-04-04T21:41:53.581Z,101101.20
2019-04-04T21:44:21.550Z,101104.34
2019-04-04T21:46:49.620Z,101099.03
2019-04-04T21:49:17.591Z,101102.92
2019-04-04T21:51:45.559Z,101097.22
2019-04-04T21:54:13.837Z,101101.61
2019-04-04T21:56:41.967Z,101096.31
2019-04-04T21:59:10.073Z,101100.61
2019-04-04T22:01:38.758Z,101100.63
2019-04-04T22:04:06.831Z,101095.70
2019-04-04T22:06:34.903Z,101097.47
2019-04-04T22:09:07.144Z,101102.70
2019-04-04T22:11:35.549Z,101093.92
2019-04-04T22:14:03.519Z,101099.95
2019-04-04T22:16:31.587Z,101099.45
2019-04-04T22:18:59.557Z,101104.72
2019-04-04T22:21:27.675Z,101102.84
2019-04-04T22:23:55.694Z,101099.23
2019-04-04T22:26:23.783Z,101104.38
2019-04-04T22:28:51.740Z,101096.99
2019-04-04T22:31:19.706Z,101102.44
2019-04-04T22:33:47.671Z,101096.67
2019-04-04T22:36:19.953Z,101093.53
2019-04-04T22:38:48.727Z,101096.62
2019-04-04T22:41:16.695Z,101098.81
2019-04-04T22:43:44.667Z,101097.91
2019-04-04T22:46:12.740Z,101095.31
2019-04-04T22:48:40.818Z,101093.59
2019-04-04T22:51:08.879Z,101098.30
2019-04-04T22:53:37.051Z,101098.30
2019-04-04T22:56:05.227Z,101097.43
2019-04-04T22:58:33.459Z,101095.63
2019-04-04T23:01:01.981Z,101098.23
2019-04-04T23:03:29.749Z,101097.77
2019-04-04T23:05:57.916Z,101095.17
2019-04-04T23:08:25.783Z,101096.52
2019-04-04T23:10:53.752Z,101092.07
2019-04-04T23:13:21.618Z,101096.81
2019-04-04T23:15:49.283Z,101090.33
2019-04-04T23:18:17.041Z,101087.27
2019-04-04T23:20:44.813Z,101092.11
2019-04-04T23:23:12.568Z,101097.33
2019-04-04T23:25:40.440Z,101094.74
2019-04-04T23:28:08.099Z,101092.97
2019-04-04T23:30:35.963Z,101096.34
2019-04-04T23:33:03.730Z,101098.95
2019-04-04T23:35:31.807Z,101099.53
2019-04-04T23:37:59.866Z,101096.41
2019-04-04T23:40:27.633Z,101103.45
2019-04-04T23:42:55.392Z,101095.92
2019-04-04T23:45:23.156Z,101100.81
2019-04-04T23:47:50.924Z,101096.91
2019-04-04T23:50:18.687Z,101097.73
2019-04-04T23:52:46.990Z,101100.45
2019-04-04T23:55:14.831Z,101100.04
2019-04-04T23:57:42.591Z,101091.22
